Portada
METAR-TAF:

METAR-TAF

Aeroports :

Rusk_County_Airport

Ladysmith, Wisconsin, Estats Units d'Amèrica

latitud: 45-29-48N, longitud: 091-00-01W, altitud: 377 m

Observació

L'informe es va fer fa 29 minuts, a les 02:55 UTC
Vent 8 kt del Est
Temperatura -4°C
Humitat 93%
Pressió 1013 hPa
Visibilitat: 11.3 km
Cel cobert a una alçada de 700 ft

METAR: KRCX 120255Z AUTO 10008KT 7SM OVC007 M04/M05 A2992 RMK AO2 T10451050

Hora: 21:24 (03:24 UTC)


TAF: manca

Observacions i pronòstics meteorològics de més de 4000 aeroports (METAR i TAF).

Les estacions disponibles són els punts grocs i vermells al mapa.

Posi el ratolí al punt desitjat per veure el nom de l'estació.

Feu clic per veure les observacions i els pronòstics meteorològics.

Per canviar el mapa: feu clic els botons verds amb una creu de color negre per apropar; al botó verd amb un guió per allunyar la imatge; o en les fletxes verdes per a mapes adjacents.


METAR-TAF: